sensor_id;sensor_type;location;lat;lon;timestamp;P1;durP1;ratioP1;P2;durP2;ratioP2
49147;SDS011;41980;45.550;12.070;2022-07-24T00:00:01;3.22;;;2.60;;
49147;SDS011;41980;45.550;12.070;2022-07-24T00:06:14;4.97;;;2.70;;
49147;SDS011;41980;45.550;12.070;2022-07-24T00:12:16;3.38;;;2.40;;
49147;SDS011;41980;45.550;12.070;2022-07-24T00:18:18;4.28;;;2.95;;
49147;SDS011;41980;45.550;12.070;2022-07-24T00:24:20;3.50;;;2.28;;
49147;SDS011;41980;45.550;12.070;2022-07-24T00:30:22;3.10;;;2.33;;
49147;SDS011;41980;45.550;12.070;2022-07-24T00:36:24;2.78;;;1.80;;
49147;SDS011;41980;45.550;12.070;2022-07-24T00:42:26;3.58;;;1.67;;
49147;SDS011;41980;45.550;12.070;2022-07-24T00:48:29;2.60;;;2.00;;
49147;SDS011;41980;45.550;12.070;2022-07-24T00:54:31;3.30;;;2.17;;
49147;SDS011;41980;45.550;12.070;2022-07-24T01:00:33;2.97;;;1.92;;
49147;SDS011;41980;45.550;12.070;2022-07-24T01:06:36;3.10;;;2.15;;
49147;SDS011;41980;45.550;12.070;2022-07-24T01:12:39;3.90;;;2.30;;
49147;SDS011;41980;45.550;12.070;2022-07-24T01:18:41;3.33;;;2.28;;
49147;SDS011;41980;45.550;12.070;2022-07-24T01:24:43;3.13;;;2.22;;
49147;SDS011;41980;45.550;12.070;2022-07-24T01:30:46;3.80;;;2.20;;
49147;SDS011;41980;45.550;12.070;2022-07-24T01:36:48;3.35;;;2.00;;
49147;SDS011;41980;45.550;12.070;2022-07-24T01:42:50;4.97;;;2.80;;
49147;SDS011;41980;45.550;12.070;2022-07-24T01:48:52;3.75;;;2.10;;
49147;SDS011;41980;45.550;12.070;2022-07-24T01:54:54;3.30;;;2.45;;
49147;SDS011;41980;45.550;12.070;2022-07-24T02:00:59;2.97;;;1.90;;
49147;SDS011;41980;45.550;12.070;2022-07-24T02:07:01;2.60;;;1.70;;
49147;SDS011;41980;45.550;12.070;2022-07-24T02:13:03;4.18;;;2.55;;
49147;SDS011;41980;45.550;12.070;2022-07-24T02:19:05;3.15;;;2.22;;
49147;SDS011;41980;45.550;12.070;2022-07-24T02:25:10;3.33;;;1.95;;
49147;SDS011;41980;45.550;12.070;2022-07-24T02:31:12;3.10;;;2.20;;
49147;SDS011;41980;45.550;12.070;2022-07-24T02:37:14;4.05;;;2.58;;
49147;SDS011;41980;45.550;12.070;2022-07-24T02:43:16;3.28;;;2.15;;
49147;SDS011;41980;45.550;12.070;2022-07-24T02:49:18;2.65;;;1.60;;
49147;SDS011;41980;45.550;12.070;2022-07-24T02:55:20;2.83;;;2.22;;
49147;SDS011;41980;45.550;12.070;2022-07-24T03:01:22;4.85;;;2.92;;
49147;SDS011;41980;45.550;12.070;2022-07-24T03:07:25;4.05;;;3.25;;
49147;SDS011;41980;45.550;12.070;2022-07-24T03:13:27;3.40;;;2.15;;
49147;SDS011;41980;45.550;12.070;2022-07-24T03:19:31;3.55;;;1.83;;
49147;SDS011;41980;45.550;12.070;2022-07-24T03:25:35;3.90;;;2.25;;
49147;SDS011;41980;45.550;12.070;2022-07-24T03:31:38;2.92;;;1.73;;
49147;SDS011;41980;45.550;12.070;2022-07-24T03:37:40;2.67;;;1.70;;
49147;SDS011;41980;45.550;12.070;2022-07-24T03:43:42;3.25;;;1.90;;
49147;SDS011;41980;45.550;12.070;2022-07-24T03:49:44;2.20;;;1.60;;
49147;SDS011;41980;45.550;12.070;2022-07-24T03:55:46;2.53;;;1.80;;
49147;SDS011;41980;45.550;12.070;2022-07-24T04:01:48;3.65;;;1.60;;
49147;SDS011;41980;45.550;12.070;2022-07-24T04:07:50;2.58;;;1.45;;
49147;SDS011;41980;45.550;12.070;2022-07-24T04:13:53;1.50;;;0.90;;
49147;SDS011;41980;45.550;12.070;2022-07-24T04:19:55;3.33;;;1.50;;
49147;SDS011;41980;45.550;12.070;2022-07-24T04:25:57;2.90;;;1.38;;
49147;SDS011;41980;45.550;12.070;2022-07-24T04:31:59;3.08;;;1.40;;
49147;SDS011;41980;45.550;12.070;2022-07-24T04:38:04;3.20;;;1.60;;
49147;SDS011;41980;45.550;12.070;2022-07-24T04:44:06;2.72;;;1.73;;
49147;SDS011;41980;45.550;12.070;2022-07-24T04:50:08;2.80;;;1.63;;
49147;SDS011;41980;45.550;12.070;2022-07-24T04:56:11;2.60;;;1.80;;
49147;SDS011;41980;45.550;12.070;2022-07-24T05:02:13;2.38;;;1.70;;
49147;SDS011;41980;45.550;12.070;2022-07-24T05:08:15;3.30;;;2.10;;
49147;SDS011;41980;45.550;12.070;2022-07-24T05:14:17;3.28;;;2.00;;
49147;SDS011;41980;45.550;12.070;2022-07-24T05:20:19;2.53;;;1.40;;
49147;SDS011;41980;45.550;12.070;2022-07-24T05:26:24;2.40;;;1.77;;
49147;SDS011;41980;45.550;12.070;2022-07-24T05:32:26;2.88;;;1.90;;
49147;SDS011;41980;45.550;12.070;2022-07-24T05:38:27;3.10;;;1.80;;
49147;SDS011;41980;45.550;12.070;2022-07-24T05:44:32;2.17;;;1.40;;
49147;SDS011;41980;45.550;12.070;2022-07-24T05:50:34;2.60;;;1.55;;
49147;SDS011;41980;45.550;12.070;2022-07-24T05:56:36;2.50;;;1.60;;
49147;SDS011;41980;45.550;12.070;2022-07-24T06:02:38;2.22;;;1.58;;
49147;SDS011;41980;45.550;12.070;2022-07-24T06:08:40;2.33;;;1.27;;
49147;SDS011;41980;45.550;12.070;2022-07-24T06:14:42;2.70;;;1.17;;
49147;SDS011;41980;45.550;12.070;2022-07-24T06:20:44;2.58;;;1.65;;
49147;SDS011;41980;45.550;12.070;2022-07-24T06:26:46;2.17;;;1.27;;
49147;SDS011;41980;45.550;12.070;2022-07-24T06:32:48;3.67;;;1.38;;
49147;SDS011;41980;45.550;12.070;2022-07-24T06:38:53;2.72;;;1.48;;
49147;SDS011;41980;45.550;12.070;2022-07-24T06:44:55;1.90;;;1.00;;
49147;SDS011;41980;45.550;12.070;2022-07-24T06:50:57;3.60;;;1.08;;
49147;SDS011;41980;45.550;12.070;2022-07-24T06:56:59;2.47;;;1.58;;
49147;SDS011;41980;45.550;12.070;2022-07-24T07:03:01;3.20;;;1.80;;
49147;SDS011;41980;45.550;12.070;2022-07-24T07:09:03;3.60;;;1.70;;
49147;SDS011;41980;45.550;12.070;2022-07-24T07:15:05;2.47;;;1.17;;
49147;SDS011;41980;45.550;12.070;2022-07-24T07:21:07;2.30;;;1.50;;
49147;SDS011;41980;45.550;12.070;2022-07-24T07:27:09;2.40;;;1.60;;
49147;SDS011;41980;45.550;12.070;2022-07-24T07:33:11;1.88;;;1.33;;
49147;SDS011;41980;45.550;12.070;2022-07-24T07:39:14;3.42;;;1.88;;
49147;SDS011;41980;45.550;12.070;2022-07-24T07:45:16;3.55;;;2.00;;
49147;SDS011;41980;45.550;12.070;2022-07-24T07:51:18;3.53;;;2.50;;
49147;SDS011;41980;45.550;12.070;2022-07-24T07:57:20;3.70;;;2.33;;
49147;SDS011;41980;45.550;12.070;2022-07-24T08:03:22;5.97;;;2.97;;
49147;SDS011;41980;45.550;12.070;2022-07-24T08:09:24;4.07;;;2.80;;
49147;SDS011;41980;45.550;12.070;2022-07-24T08:15:26;3.65;;;2.58;;
49147;SDS011;41980;45.550;12.070;2022-07-24T08:21:28;3.55;;;2.90;;
49147;SDS011;41980;45.550;12.070;2022-07-24T08:27:30;4.38;;;2.67;;
49147;SDS011;41980;45.550;12.070;2022-07-24T08:33:37;3.65;;;2.88;;
49147;SDS011;41980;45.550;12.070;2022-07-24T08:39:39;4.97;;;3.22;;
49147;SDS011;41980;45.550;12.070;2022-07-24T08:45:41;3.72;;;2.45;;
49147;SDS011;41980;45.550;12.070;2022-07-24T08:51:45;4.35;;;2.90;;
49147;SDS011;41980;45.550;12.070;2022-07-24T08:57:50;7.07;;;3.15;;
49147;SDS011;41980;45.550;12.070;2022-07-24T09:03:52;3.90;;;2.95;;
49147;SDS011;41980;45.550;12.070;2022-07-24T09:16:02;3.63;;;2.78;;
49147;SDS011;41980;45.550;12.070;2022-07-24T09:22:04;7.45;;;3.97;;
49147;SDS011;41980;45.550;12.070;2022-07-24T09:28:06;5.20;;;3.50;;
49147;SDS011;41980;45.550;12.070;2022-07-24T09:34:08;5.90;;;3.55;;
49147;SDS011;41980;45.550;12.070;2022-07-24T09:40:13;5.68;;;2.75;;
49147;SDS011;41980;45.550;12.070;2022-07-24T09:46:17;5.03;;;2.92;;
49147;SDS011;41980;45.550;12.070;2022-07-24T09:58:36;3.40;;;2.47;;
49147;SDS011;41980;45.550;12.070;2022-07-24T10:04:41;4.15;;;3.63;;
49147;SDS011;41980;45.550;12.070;2022-07-24T10:10:44;4.60;;;3.00;;
49147;SDS011;41980;45.550;12.070;2022-07-24T10:16:47;7.78;;;4.70;;
49147;SDS011;41980;45.550;12.070;2022-07-24T10:23:04;4.72;;;3.10;;
49147;SDS011;41980;45.550;12.070;2022-07-24T10:41:21;4.60;;;3.13;;
49147;SDS011;41980;45.550;12.070;2022-07-24T10:47:26;7.20;;;4.18;;
49147;SDS011;41980;45.550;12.070;2022-07-24T10:53:30;4.90;;;3.10;;
49147;SDS011;41980;45.550;12.070;2022-07-24T10:59:37;4.73;;;3.70;;
49147;SDS011;41980;45.550;12.070;2022-07-24T11:06:00;4.90;;;3.20;;
49147;SDS011;41980;45.550;12.070;2022-07-24T11:12:04;5.25;;;3.10;;
49147;SDS011;41980;45.550;12.070;2022-07-24T11:30:18;5.78;;;3.53;;
49147;SDS011;41980;45.550;12.070;2022-07-24T11:36:21;4.28;;;2.95;;
49147;SDS011;41980;45.550;12.070;2022-07-24T11:42:23;4.10;;;2.90;;
49147;SDS011;41980;45.550;12.070;2022-07-24T11:48:25;4.90;;;2.72;;
49147;SDS011;41980;45.550;12.070;2022-07-24T11:54:27;4.45;;;3.20;;
49147;SDS011;41980;45.550;12.070;2022-07-24T12:00:30;3.90;;;2.58;;
49147;SDS011;41980;45.550;12.070;2022-07-24T12:06:32;3.08;;;2.38;;
49147;SDS011;41980;45.550;12.070;2022-07-24T12:12:36;3.22;;;2.47;;
49147;SDS011;41980;45.550;12.070;2022-07-24T12:18:40;3.40;;;2.17;;
49147;SDS011;41980;45.550;12.070;2022-07-24T12:24:42;4.60;;;3.03;;
49147;SDS011;41980;45.550;12.070;2022-07-24T12:30:45;4.25;;;2.95;;
49147;SDS011;41980;45.550;12.070;2022-07-24T12:36:50;4.85;;;2.97;;
49147;SDS011;41980;45.550;12.070;2022-07-24T12:55:03;4.80;;;2.65;;
49147;SDS011;41980;45.550;12.070;2022-07-24T13:01:20;3.53;;;2.22;;
49147;SDS011;41980;45.550;12.070;2022-07-24T13:07:25;2.65;;;1.85;;
49147;SDS011;41980;45.550;12.070;2022-07-24T13:13:27;2.63;;;1.80;;
49147;SDS011;41980;45.550;12.070;2022-07-24T13:19:29;2.17;;;1.60;;
49147;SDS011;41980;45.550;12.070;2022-07-24T13:25:32;4.78;;;1.80;;
49147;SDS011;41980;45.550;12.070;2022-07-24T13:31:34;3.63;;;1.95;;
49147;SDS011;41980;45.550;12.070;2022-07-24T13:37:37;3.17;;;1.92;;
49147;SDS011;41980;45.550;12.070;2022-07-24T13:43:40;2.78;;;1.83;;
49147;SDS011;41980;45.550;12.070;2022-07-24T13:49:43;2.92;;;1.85;;
49147;SDS011;41980;45.550;12.070;2022-07-24T13:55:45;3.30;;;2.55;;
49147;SDS011;41980;45.550;12.070;2022-07-24T14:01:47;2.40;;;1.88;;
49147;SDS011;41980;45.550;12.070;2022-07-24T14:07:49;6.40;;;2.53;;
49147;SDS011;41980;45.550;12.070;2022-07-24T14:13:52;2.60;;;1.90;;
49147;SDS011;41980;45.550;12.070;2022-07-24T14:19:54;2.78;;;2.30;;
49147;SDS011;41980;45.550;12.070;2022-07-24T14:25:58;3.75;;;2.80;;
49147;SDS011;41980;45.550;12.070;2022-07-24T14:31:59;3.13;;;2.20;;
49147;SDS011;41980;45.550;12.070;2022-07-24T14:38:02;2.67;;;2.00;;
49147;SDS011;41980;45.550;12.070;2022-07-24T14:44:04;4.78;;;2.50;;
49147;SDS011;41980;45.550;12.070;2022-07-24T14:50:07;2.53;;;1.90;;
49147;SDS011;41980;45.550;12.070;2022-07-24T14:56:10;3.60;;;2.25;;
49147;SDS011;41980;45.550;12.070;2022-07-24T15:02:14;2.17;;;1.65;;
49147;SDS011;41980;45.550;12.070;2022-07-24T15:08:16;2.60;;;1.73;;
49147;SDS011;41980;45.550;12.070;2022-07-24T15:14:18;3.08;;;2.03;;
49147;SDS011;41980;45.550;12.070;2022-07-24T15:20:20;3.20;;;2.10;;
49147;SDS011;41980;45.550;12.070;2022-07-24T15:26:22;2.63;;;1.80;;
49147;SDS011;41980;45.550;12.070;2022-07-24T15:32:24;3.22;;;1.88;;
49147;SDS011;41980;45.550;12.070;2022-07-24T15:38:27;3.05;;;2.38;;
49147;SDS011;41980;45.550;12.070;2022-07-24T15:44:30;3.53;;;2.20;;
49147;SDS011;41980;45.550;12.070;2022-07-24T15:50:32;2.85;;;2.15;;
49147;SDS011;41980;45.550;12.070;2022-07-24T15:56:34;2.60;;;1.80;;
49147;SDS011;41980;45.550;12.070;2022-07-24T16:02:36;3.67;;;2.30;;
49147;SDS011;41980;45.550;12.070;2022-07-24T16:08:40;3.90;;;1.95;;
49147;SDS011;41980;45.550;12.070;2022-07-24T16:14:42;3.50;;;1.92;;
49147;SDS011;41980;45.550;12.070;2022-07-24T16:20:45;2.30;;;1.95;;
49147;SDS011;41980;45.550;12.070;2022-07-24T16:26:48;3.72;;;1.83;;
49147;SDS011;41980;45.550;12.070;2022-07-24T16:32:50;2.42;;;1.80;;
49147;SDS011;41980;45.550;12.070;2022-07-24T16:38:52;3.35;;;1.60;;
49147;SDS011;41980;45.550;12.070;2022-07-24T16:44:54;2.92;;;1.80;;
49147;SDS011;41980;45.550;12.070;2022-07-24T16:50:58;2.55;;;1.85;;
49147;SDS011;41980;45.550;12.070;2022-07-24T16:57:00;2.65;;;1.90;;
49147;SDS011;41980;45.550;12.070;2022-07-24T17:03:04;3.78;;;1.67;;
49147;SDS011;41980;45.550;12.070;2022-07-24T17:09:07;2.22;;;1.65;;
49147;SDS011;41980;45.550;12.070;2022-07-24T17:15:09;2.58;;;1.67;;
49147;SDS011;41980;45.550;12.070;2022-07-24T17:21:13;2.40;;;1.30;;
49147;SDS011;41980;45.550;12.070;2022-07-24T17:27:15;3.45;;;1.50;;
49147;SDS011;41980;45.550;12.070;2022-07-24T17:33:19;2.83;;;1.77;;
49147;SDS011;41980;45.550;12.070;2022-07-24T17:39:21;2.85;;;1.60;;
49147;SDS011;41980;45.550;12.070;2022-07-24T17:45:25;2.83;;;1.70;;
49147;SDS011;41980;45.550;12.070;2022-07-24T17:51:27;2.33;;;1.73;;
49147;SDS011;41980;45.550;12.070;2022-07-24T17:57:30;3.35;;;1.77;;
49147;SDS011;41980;45.550;12.070;2022-07-24T18:03:32;2.78;;;1.60;;
49147;SDS011;41980;45.550;12.070;2022-07-24T18:09:34;5.55;;;2.15;;
49147;SDS011;41980;45.550;12.070;2022-07-24T18:15:36;2.33;;;1.80;;
49147;SDS011;41980;45.550;12.070;2022-07-24T18:21:39;2.25;;;1.52;;
49147;SDS011;41980;45.550;12.070;2022-07-24T18:27:41;2.40;;;1.80;;
49147;SDS011;41980;45.550;12.070;2022-07-24T18:33:43;2.20;;;1.23;;
49147;SDS011;41980;45.550;12.070;2022-07-24T18:39:45;5.22;;;1.70;;
49147;SDS011;41980;45.550;12.070;2022-07-24T18:45:47;5.00;;;1.45;;
49147;SDS011;41980;45.550;12.070;2022-07-24T18:51:49;2.20;;;1.58;;
49147;SDS011;41980;45.550;12.070;2022-07-24T18:57:52;3.47;;;1.85;;
49147;SDS011;41980;45.550;12.070;2022-07-24T19:03:54;3.10;;;1.50;;
49147;SDS011;41980;45.550;12.070;2022-07-24T19:09:56;7.38;;;1.90;;
49147;SDS011;41980;45.550;12.070;2022-07-24T19:15:59;2.42;;;1.52;;
49147;SDS011;41980;45.550;12.070;2022-07-24T19:22:01;3.78;;;1.65;;
49147;SDS011;41980;45.550;12.070;2022-07-24T19:28:03;2.33;;;1.67;;
49147;SDS011;41980;45.550;12.070;2022-07-24T19:34:05;3.45;;;1.80;;
49147;SDS011;41980;45.550;12.070;2022-07-24T19:40:07;3.78;;;2.20;;
49147;SDS011;41980;45.550;12.070;2022-07-24T19:46:09;4.15;;;1.90;;
49147;SDS011;41980;45.550;12.070;2022-07-24T19:52:12;3.35;;;2.00;;
49147;SDS011;41980;45.550;12.070;2022-07-24T19:58:14;3.53;;;2.10;;
49147;SDS011;41980;45.550;12.070;2022-07-24T20:04:16;2.97;;;1.80;;
49147;SDS011;41980;45.550;12.070;2022-07-24T20:10:22;4.22;;;1.98;;
49147;SDS011;41980;45.550;12.070;2022-07-24T20:16:24;3.20;;;2.10;;
49147;SDS011;41980;45.550;12.070;2022-07-24T20:22:26;3.28;;;2.05;;
49147;SDS011;41980;45.550;12.070;2022-07-24T20:28:28;5.28;;;2.58;;
49147;SDS011;41980;45.550;12.070;2022-07-24T20:34:30;4.88;;;2.70;;
49147;SDS011;41980;45.550;12.070;2022-07-24T20:40:33;4.00;;;2.10;;
49147;SDS011;41980;45.550;12.070;2022-07-24T20:46:35;3.97;;;1.90;;
49147;SDS011;41980;45.550;12.070;2022-07-24T20:52:40;3.33;;;1.95;;
49147;SDS011;41980;45.550;12.070;2022-07-24T20:58:42;3.35;;;2.38;;
49147;SDS011;41980;45.550;12.070;2022-07-24T21:04:46;6.13;;;2.35;;
49147;SDS011;41980;45.550;12.070;2022-07-24T21:10:48;3.50;;;2.35;;
49147;SDS011;41980;45.550;12.070;2022-07-24T21:16:53;6.05;;;2.55;;
49147;SDS011;41980;45.550;12.070;2022-07-24T21:22:55;5.13;;;2.28;;
49147;SDS011;41980;45.550;12.070;2022-07-24T21:28:57;4.57;;;2.35;;
49147;SDS011;41980;45.550;12.070;2022-07-24T21:34:59;5.97;;;2.30;;
49147;SDS011;41980;45.550;12.070;2022-07-24T21:41:01;4.70;;;2.65;;
49147;SDS011;41980;45.550;12.070;2022-07-24T21:47:03;3.25;;;2.53;;
49147;SDS011;41980;45.550;12.070;2022-07-24T21:53:05;4.10;;;2.28;;
49147;SDS011;41980;45.550;12.070;2022-07-24T21:59:07;3.80;;;2.33;;
49147;SDS011;41980;45.550;12.070;2022-07-24T22:05:09;3.38;;;2.10;;
49147;SDS011;41980;45.550;12.070;2022-07-24T22:11:11;2.90;;;2.20;;
49147;SDS011;41980;45.550;12.070;2022-07-24T22:17:14;4.38;;;2.45;;
49147;SDS011;41980;45.550;12.070;2022-07-24T22:23:16;4.63;;;2.90;;
49147;SDS011;41980;45.550;12.070;2022-07-24T22:29:18;4.85;;;2.45;;
49147;SDS011;41980;45.550;12.070;2022-07-24T22:35:22;3.22;;;2.33;;
49147;SDS011;41980;45.550;12.070;2022-07-24T22:41:24;4.15;;;2.33;;
49147;SDS011;41980;45.550;12.070;2022-07-24T22:47:27;4.70;;;2.20;;
49147;SDS011;41980;45.550;12.070;2022-07-24T22:53:29;3.03;;;2.20;;
49147;SDS011;41980;45.550;12.070;2022-07-24T22:59:31;4.97;;;2.70;;
49147;SDS011;41980;45.550;12.070;2022-07-24T23:05:37;5.05;;;2.50;;
49147;SDS011;41980;45.550;12.070;2022-07-24T23:11:39;3.92;;;2.33;;
49147;SDS011;41980;45.550;12.070;2022-07-24T23:17:41;4.13;;;2.60;;
49147;SDS011;41980;45.550;12.070;2022-07-24T23:23:43;4.65;;;2.50;;
49147;SDS011;41980;45.550;12.070;2022-07-24T23:29:46;4.00;;;3.13;;
49147;SDS011;41980;45.550;12.070;2022-07-24T23:35:48;4.45;;;2.95;;
49147;SDS011;41980;45.550;12.070;2022-07-24T23:41:50;3.03;;;2.58;;
49147;SDS011;41980;45.550;12.070;2022-07-24T23:47:52;3.13;;;2.20;;
49147;SDS011;41980;45.550;12.070;2022-07-24T23:53:54;2.95;;;1.85;;
49147;SDS011;41980;45.550;12.070;2022-07-24T23:59:56;5.70;;;2.20;;
